Terminal Aerodrome Forecast
Issued by NWS Pocatello, ID

Home | Current Version | Previous Version | Text Only | Print | Product List | Glossary On
Versions: 1 2 3 4 5 6 7 8 9 10 11 12 13 14 15 16 17 18 19 20
000
FTUS45 KPIH 261100
TAFIDA
TAF
KIDA 261138Z 2612/2712 30005KT P6SM FEW070
      TEMPO 2612/2615 6SM BR
     FM262100 25006KT P6SM SCT045
     FM270400 22005KT P6SM SKC
      TEMPO 2710/2712 3SM BR BKN004=

USA.gov is the U.S. government's official web portal to all federal, state and local government web resources and services.